createdAt,value
2019-05-07T00:00:03.375Z,101526.05
2019-05-07T00:01:23.071Z,101524.34
2019-05-07T00:02:32.135Z,101526.45
2019-05-07T00:03:39.089Z,101524.78
2019-05-07T00:04:45.886Z,101524.78
2019-05-07T00:05:53.977Z,101530.72
2019-05-07T00:07:02.344Z,101527.74
2019-05-07T00:08:09.676Z,101529.45
2019-05-07T00:09:16.425Z,101524.34
2019-05-07T00:10:24.954Z,101529.45
2019-05-07T00:11:33.125Z,101523.06
2019-05-07T00:12:40.337Z,101527.33
2019-05-07T00:13:47.426Z,101520.52
2019-05-07T00:15:00.900Z,101526.03
2019-05-07T00:16:02.718Z,101525.19
2019-05-07T00:17:09.918Z,101527.73
2019-05-07T00:18:16.637Z,101526.89
2019-05-07T00:19:23.437Z,101521.34
2019-05-07T00:20:32.467Z,101523.48
2019-05-07T00:21:38.900Z,101521.34
2019-05-07T00:22:45.666Z,101520.05
2019-05-07T00:23:52.830Z,101520.89
2019-05-07T00:24:59.577Z,101512.39
2019-05-07T00:26:06.310Z,101514.08
2019-05-07T00:27:13.259Z,101512.38
2019-05-07T00:28:22.823Z,101515.77
2019-05-07T00:29:29.129Z,101515.33
2019-05-07T00:30:35.868Z,101513.20
2019-05-07T00:31:42.993Z,101507.23
2019-05-07T00:32:49.714Z,101515.31
2019-05-07T00:33:56.445Z,101508.95
2019-05-07T00:35:04.858Z,101508.55
2019-05-07T00:36:32.379Z,101507.68
2019-05-07T00:37:46.045Z,101512.30
2019-05-07T00:38:57.935Z,101504.23
2019-05-07T00:40:22.970Z,101505.89
2019-05-07T00:41:48.600Z,101506.74
2019-05-07T00:43:13.480Z,101506.33
2019-05-07T00:44:22.083Z,101506.27
2019-05-07T00:45:48.083Z,101505.41
2019-05-07T00:46:54.805Z,101507.95
2019-05-07T00:48:02.961Z,101499.83
2019-05-07T00:49:09.884Z,101504.47
2019-05-07T00:50:22.935Z,101505.74
2019-05-07T00:51:34.100Z,101504.48
2019-05-07T00:52:42.824Z,101497.26
2019-05-07T00:53:49.356Z,101497.64
2019-05-07T00:54:56.490Z,101498.04
2019-05-07T00:56:03.307Z,101498.47
2019-05-07T00:57:10.049Z,101496.80
2019-05-07T00:58:16.776Z,101496.42
2019-05-07T00:59:23.502Z,101498.10
2019-05-07T01:00:33.059Z,101497.23
2019-05-07T01:01:39.384Z,101498.84
2019-05-07T01:02:46.152Z,101492.11
2019-05-07T01:03:53.540Z,101492.10
2019-05-07T01:05:02.811Z,101496.77
2019-05-07T01:06:08.828Z,101491.69
2019-05-07T01:07:15.801Z,101487.82
2019-05-07T01:08:23.389Z,101489.46
2019-05-07T01:09:32.360Z,101490.70
2019-05-07T01:10:38.986Z,101496.19
2019-05-07T01:11:46.474Z,101495.34
2019-05-07T01:12:53.318Z,101492.33
2019-05-07T01:14:00.190Z,101496.93
2019-05-07T01:15:07.686Z,101494.78
2019-05-07T01:16:15.378Z,101497.31
2019-05-07T01:17:22.828Z,101497.34
2019-05-07T01:18:32.271Z,101497.72
2019-05-07T01:19:38.890Z,101498.14
2019-05-07T01:20:45.969Z,101496.45
2019-05-07T01:21:52.700Z,101495.59
2019-05-07T01:23:02.445Z,101497.31
2019-05-07T01:24:08.710Z,101497.33
2019-05-07T01:25:15.745Z,101493.53
2019-05-07T01:26:22.484Z,101490.53
2019-05-07T01:27:31.973Z,101491.75
2019-05-07T01:29:09.424Z,101492.13
2019-05-07T01:30:16.203Z,101492.09
2019-05-07T01:31:23.109Z,101493.33
2019-05-07T01:32:38.811Z,101491.61
2019-05-07T01:33:52.842Z,101492.89
2019-05-07T01:35:03.150Z,101492.42
2019-05-07T01:36:19.633Z,101493.67
2019-05-07T01:37:26.377Z,101495.81
2019-05-07T01:38:33.781Z,101503.89
2019-05-07T01:39:42.202Z,101499.64
2019-05-07T01:40:49.256Z,101496.61
2019-05-07T01:41:55.989Z,101504.23
2019-05-07T01:43:02.726Z,101499.46
2019-05-07T01:44:09.881Z,101502.78
2019-05-07T01:45:17.088Z,101500.73
2019-05-07T01:46:24.759Z,101503.70
2019-05-07T01:47:33.204Z,101506.26
2019-05-07T01:48:40.130Z,101506.69
2019-05-07T01:49:47.608Z,101503.68
2019-05-07T01:50:54.551Z,101503.63
2019-05-07T01:52:02.486Z,101506.98
2019-05-07T01:53:12.119Z,101506.13
2019-05-07T01:54:18.511Z,101504.41
2019-05-07T01:55:25.285Z,101499.74
2019-05-07T01:56:33.150Z,101501.03
2019-05-07T01:57:41.998Z,101506.92
2019-05-07T01:58:48.533Z,101503.94
2019-05-07T01:59:55.556Z,101503.06
2019-05-07T02:01:02.989Z,101505.19
2019-05-07T02:02:17.830Z,101503.14
2019-05-07T02:03:32.781Z,101507.81
2019-05-07T02:04:45.671Z,101510.39
2019-05-07T02:06:14.257Z,101508.23
2019-05-07T02:07:42.758Z,101513.30
2019-05-07T02:08:56.232Z,101509.47
2019-05-07T02:10:24.905Z,101508.09
2019-05-07T02:11:39.482Z,101514.45
2019-05-07T02:12:46.238Z,101510.73
2019-05-07T02:13:53.461Z,101511.57
2019-05-07T02:15:02.485Z,101511.08
2019-05-07T02:16:09.077Z,101511.89
2019-05-07T02:17:15.864Z,101512.23
2019-05-07T02:18:22.894Z,101511.80
2019-05-07T02:19:29.971Z,101512.61
2019-05-07T02:20:37.302Z,101511.67
2019-05-07T02:21:44.054Z,101512.90
2019-05-07T02:22:53.036Z,101516.30
2019-05-07T02:23:59.611Z,101510.45
2019-05-07T02:25:07.056Z,101515.13
2019-05-07T02:26:14.182Z,101518.56
2019-05-07T02:27:22.123Z,101517.33
2019-05-07T02:28:29.080Z,101509.69
2019-05-07T02:29:38.193Z,101514.39
2019-05-07T02:30:44.791Z,101511.45
2019-05-07T02:31:53.056Z,101512.34
2019-05-07T02:33:03.412Z,101512.78
2019-05-07T02:34:08.728Z,101506.47
2019-05-07T02:35:16.109Z,101514.52
2019-05-07T02:36:23.980Z,101508.15
2019-05-07T02:37:48.454Z,101512.28
2019-05-07T02:38:54.073Z,101509.28
2019-05-07T02:40:14.120Z,101504.52
2019-05-07T02:41:23.991Z,101504.02
2019-05-07T02:42:33.560Z,101501.86
2019-05-07T02:43:42.852Z,101502.67
2019-05-07T02:45:19.374Z,101501.37
2019-05-07T02:46:36.485Z,101505.61
2019-05-07T02:47:43.908Z,101506.27
2019-05-07T02:48:57.370Z,101501.49
2019-05-07T02:50:12.919Z,101499.69
2019-05-07T02:51:24.177Z,101500.11
2019-05-07T02:52:48.378Z,101500.56
2019-05-07T02:54:13.231Z,101503.12
2019-05-07T02:55:27.158Z,101501.34
2019-05-07T02:56:33.919Z,101492.78
2019-05-07T02:57:43.443Z,101497.80
2019-05-07T02:58:49.526Z,101494.80
2019-05-07T02:59:56.255Z,101495.17
2019-05-07T03:01:04.919Z,101495.58
2019-05-07T03:02:13.882Z,101497.69
2019-05-07T03:03:24.312Z,101495.58
2019-05-07T03:04:33.105Z,101501.09
2019-05-07T03:05:38.708Z,101495.63
2019-05-07T03:06:45.902Z,101497.83
2019-05-07T03:07:53.756Z,101496.98
2019-05-07T03:09:03.190Z,101494.03
2019-05-07T03:10:09.567Z,101496.52
2019-05-07T03:11:16.889Z,101496.09
2019-05-07T03:12:24.387Z,101498.63
2019-05-07T03:13:33.752Z,101490.20
2019-05-07T03:14:43.549Z,101496.52
2019-05-07T03:15:49.326Z,101496.42
2019-05-07T03:16:56.137Z,101495.55
2019-05-07T03:18:03.768Z,101495.47
2019-05-07T03:19:13.392Z,101496.21
2019-05-07T03:20:23.770Z,101499.66
2019-05-07T03:21:49.336Z,101493.23
2019-05-07T03:22:59.024Z,101499.09
2019-05-07T03:24:14.509Z,101493.58
2019-05-07T03:25:25.379Z,101498.25
2019-05-07T03:26:36.927Z,101497.80
2019-05-07T03:27:44.283Z,101492.81
2019-05-07T03:28:56.198Z,101499.14
2019-05-07T03:30:26.004Z,101499.94
2019-05-07T03:31:46.066Z,101495.34
2019-05-07T03:33:06.355Z,101502.19
2019-05-07T03:34:36.566Z,101499.20
2019-05-07T03:35:46.492Z,101499.97
2019-05-07T03:36:56.477Z,101499.97
2019-05-07T03:38:03.431Z,101495.74
2019-05-07T03:39:14.072Z,101501.63
2019-05-07T03:40:19.534Z,101503.71
2019-05-07T03:41:27.494Z,101499.35
2019-05-07T03:42:34.346Z,101501.89
2019-05-07T03:43:43.507Z,101503.12
2019-05-07T03:44:55.222Z,101501.53
2019-05-07T03:46:14.354Z,101501.08
2019-05-07T03:47:43.580Z,101503.95
2019-05-07T03:48:49.252Z,101500.65
2019-05-07T03:49:56.337Z,101495.16
2019-05-07T03:51:03.699Z,101506.45
2019-05-07T03:52:13.697Z,101497.92
2019-05-07T03:53:22.721Z,101495.84
2019-05-07T03:54:28.457Z,101500.09
2019-05-07T03:55:35.613Z,101500.88
2019-05-07T03:56:43.570Z,101494.20
2019-05-07T03:57:52.810Z,101488.70
2019-05-07T03:58:59.304Z,101489.88
2019-05-07T04:00:07.502Z,101490.27
2019-05-07T04:01:16.333Z,101498.30
2019-05-07T04:02:23.993Z,101507.22
2019-05-07T04:03:34.106Z,101502.23
2019-05-07T04:04:43.274Z,101499.72
2019-05-07T04:05:52.790Z,101493.05
2019-05-07T04:06:58.274Z,101499.91
2019-05-07T04:08:05.037Z,101491.97
2019-05-07T04:09:13.257Z,101495.84
2019-05-07T04:10:23.193Z,101491.20
2019-05-07T04:11:29.106Z,101496.72
2019-05-07T04:12:36.588Z,101492.49
2019-05-07T04:13:44.123Z,101487.05
2019-05-07T04:14:53.391Z,101493.41
2019-05-07T04:16:03.651Z,101490.11
2019-05-07T04:17:17.569Z,101488.48
2019-05-07T04:18:17.631Z,101491.87
2019-05-07T04:19:24.430Z,101484.34
2019-05-07T04:20:33.402Z,101484.80
2019-05-07T04:21:43.308Z,101486.91
2019-05-07T04:22:49.140Z,101487.83
2019-05-07T04:24:13.725Z,101487.00
2019-05-07T04:25:48.636Z,101482.88
2019-05-07T04:27:03.745Z,101485.49
2019-05-07T04:28:24.691Z,101481.84
2019-05-07T04:29:34.818Z,101481.98
2019-05-07T04:30:40.317Z,101489.74
2019-05-07T04:31:47.169Z,101486.07
2019-05-07T04:32:55.764Z,101493.78
2019-05-07T04:34:07.038Z,101486.29
2019-05-07T04:35:19.385Z,101486.84
2019-05-07T04:36:34.156Z,101483.59
2019-05-07T04:37:42.734Z,101486.62
2019-05-07T04:38:48.590Z,101490.56
2019-05-07T04:39:55.346Z,101487.70
2019-05-07T04:41:03.741Z,101483.96
2019-05-07T04:42:13.302Z,101485.73
2019-05-07T04:43:19.348Z,101491.70
2019-05-07T04:44:26.469Z,101489.62
2019-05-07T04:45:34.018Z,101489.63
2019-05-07T04:46:44.716Z,101494.31
2019-05-07T04:47:49.389Z,101489.23
2019-05-07T04:48:56.145Z,101492.17
2019-05-07T04:50:03.786Z,101484.55
2019-05-07T04:51:12.758Z,101491.75
2019-05-07T04:52:27.069Z,101492.62
2019-05-07T04:53:33.958Z,101488.40
2019-05-07T04:54:43.494Z,101493.07
2019-05-07T04:55:49.183Z,101485.45
2019-05-07T04:56:56.311Z,101496.08
2019-05-07T04:58:08.280Z,101495.22
2019-05-07T04:59:13.150Z,101491.80
2019-05-07T05:00:22.969Z,101490.94
2019-05-07T05:01:32.982Z,101496.02
2019-05-07T05:03:13.790Z,101498.16
2019-05-07T05:04:29.944Z,101493.97
2019-05-07T05:05:32.753Z,101486.77
2019-05-07T05:06:38.991Z,101488.04
2019-05-07T05:07:46.178Z,101491.92
2019-05-07T05:08:56.065Z,101494.48
2019-05-07T05:10:02.885Z,101492.80
2019-05-07T05:11:12.570Z,101499.62
2019-05-07T05:12:18.243Z,101495.83
2019-05-07T05:13:25.894Z,101499.21
2019-05-07T05:14:33.918Z,101497.47
2019-05-07T05:15:42.935Z,101492.77
2019-05-07T05:16:49.416Z,101491.92
2019-05-07T05:17:56.230Z,101492.33
2019-05-07T05:19:03.386Z,101495.31
2019-05-07T05:20:13.018Z,101492.30
2019-05-07T05:21:38.370Z,101491.89
2019-05-07T05:23:12.091Z,101494.41
2019-05-07T05:24:32.941Z,101492.29
2019-05-07T05:25:43.105Z,101496.11
2019-05-07T05:26:52.394Z,101494.84
2019-05-07T05:27:58.923Z,101494.86
2019-05-07T05:29:05.723Z,101492.31
2019-05-07T05:30:19.253Z,101497.39
2019-05-07T05:31:26.307Z,101493.59
2019-05-07T05:32:33.512Z,101496.97
2019-05-07T05:33:41.944Z,101499.48
2019-05-07T05:34:48.898Z,101496.53
2019-05-07T05:35:55.714Z,101497.78
2019-05-07T05:37:02.823Z,101495.69
2019-05-07T05:38:12.442Z,101499.48
2019-05-07T05:39:19.248Z,101504.13
2019-05-07T05:40:26.302Z,101501.98
2019-05-07T05:41:36.237Z,101496.92
2019-05-07T05:42:49.271Z,101505.84
2019-05-07T05:44:02.422Z,101503.73
2019-05-07T05:45:29.030Z,101498.70
2019-05-07T05:46:36.107Z,101499.18
2019-05-07T05:47:45.005Z,101504.70
2019-05-07T05:48:52.082Z,101502.56
2019-05-07T05:49:59.081Z,101501.30
2019-05-07T05:51:25.110Z,101503.05
2019-05-07T05:52:45.654Z,101505.59
2019-05-07T05:53:57.576Z,101504.81
2019-05-07T05:55:12.018Z,101507.38
2019-05-07T05:56:43.586Z,101503.59
2019-05-07T05:58:16.742Z,101507.83
2019-05-07T05:59:48.994Z,101503.61
2019-05-07T06:01:28.149Z,101507.86
2019-05-07T06:02:56.436Z,101508.30
2019-05-07T06:04:27.852Z,101498.52
2019-05-07T06:05:42.667Z,101506.19
2019-05-07T06:07:11.101Z,101501.92
2019-05-07T06:08:34.119Z,101503.62
2019-05-07T06:10:05.695Z,101501.09
2019-05-07T06:11:21.745Z,101500.22
2019-05-07T06:12:43.005Z,101498.53
2019-05-07T06:14:02.551Z,101497.67
2019-05-07T06:15:18.656Z,101497.66
2019-05-07T06:16:28.066Z,101505.72
2019-05-07T06:17:56.448Z,101502.31
2019-05-07T06:19:32.806Z,101499.36
2019-05-07T06:20:57.584Z,101495.92
2019-05-07T06:22:23.198Z,101504.02
2019-05-07T06:23:33.072Z,101504.44
2019-05-07T06:24:48.074Z,101501.06
2019-05-07T06:25:54.878Z,101500.63
2019-05-07T06:27:02.973Z,101504.42
2019-05-07T06:28:12.482Z,101507.02
2019-05-07T06:29:20.244Z,101506.16
2019-05-07T06:30:27.428Z,101500.98
2019-05-07T06:31:34.239Z,101502.27
2019-05-07T06:32:43.016Z,101502.70
2019-05-07T06:33:49.463Z,101496.72
2019-05-07T06:34:56.862Z,101499.71
2019-05-07T06:36:03.652Z,101504.38
2019-05-07T06:37:11.878Z,101502.20
2019-05-07T06:38:19.108Z,101505.98
2019-05-07T06:39:29.419Z,101505.59
2019-05-07T06:40:48.674Z,101503.44
2019-05-07T06:42:12.913Z,101506.38
2019-05-07T06:43:42.175Z,101502.89
2019-05-07T06:45:03.151Z,101507.07
2019-05-07T06:46:09.881Z,101504.05
2019-05-07T06:47:16.986Z,101506.98
2019-05-07T06:48:37.653Z,101512.88
2019-05-07T06:49:32.651Z,101515.37
2019-05-07T06:50:43.228Z,101507.83
2019-05-07T06:51:52.662Z,101505.66
2019-05-07T06:52:58.795Z,101509.41
2019-05-07T06:54:05.592Z,101511.90
2019-05-07T06:55:12.759Z,101512.28
2019-05-07T06:56:19.519Z,101513.05
2019-05-07T06:57:28.183Z,101505.75
2019-05-07T06:58:49.567Z,101506.57
2019-05-07T06:59:59.486Z,101509.14
2019-05-07T07:01:22.554Z,101503.11
2019-05-07T07:02:49.616Z,101507.38
2019-05-07T07:04:06.535Z,101501.81
2019-05-07T07:05:35.221Z,101504.89
2019-05-07T07:07:01.788Z,101503.97
2019-05-07T07:08:19.111Z,101505.63
2019-05-07T07:09:34.952Z,101500.45
2019-05-07T07:10:59.405Z,101504.27
2019-05-07T07:12:12.765Z,101503.45
2019-05-07T07:13:20.050Z,101503.38
2019-05-07T07:14:27.427Z,101503.27
2019-05-07T07:15:34.217Z,101499.33
2019-05-07T07:16:42.062Z,101496.67
2019-05-07T07:17:48.981Z,101501.81
2019-05-07T07:18:56.509Z,101492.48
2019-05-07T07:20:03.721Z,101503.52
2019-05-07T07:21:12.375Z,101495.37
2019-05-07T07:22:19.204Z,101497.83
2019-05-07T07:23:26.621Z,101494.36
2019-05-07T07:24:33.705Z,101495.16
2019-05-07T07:25:42.868Z,101496.36
2019-05-07T07:26:49.299Z,101491.69
2019-05-07T07:27:56.763Z,101498.20
2019-05-07T07:29:03.815Z,101489.59
2019-05-07T07:30:39.406Z,101489.55
2019-05-07T07:31:52.644Z,101491.19
2019-05-07T07:33:02.683Z,101495.03
2019-05-07T07:34:09.224Z,101486.23
2019-05-07T07:35:17.884Z,101492.61
2019-05-07T07:36:27.513Z,101488.20
2019-05-07T07:37:42.993Z,101488.64
2019-05-07T07:38:49.997Z,101485.11
2019-05-07T07:40:14.583Z,101492.56
2019-05-07T07:41:32.529Z,101493.16
2019-05-07T07:42:39.007Z,101496.41
2019-05-07T07:43:46.516Z,101487.44
2019-05-07T07:45:12.422Z,101490.22
2019-05-07T07:46:19.430Z,101493.80
2019-05-07T07:47:28.100Z,101489.98
2019-05-07T07:48:34.867Z,101487.25
2019-05-07T07:49:42.202Z,101485.30
2019-05-07T07:50:49.253Z,101475.50
2019-05-07T07:51:56.654Z,101484.25
2019-05-07T07:53:03.407Z,101484.04
2019-05-07T07:54:12.525Z,101486.76
2019-05-07T07:55:22.276Z,101480.79
2019-05-07T07:56:53.906Z,101477.27
2019-05-07T07:58:07.827Z,101477.95
2019-05-07T07:59:33.862Z,101481.63
2019-05-07T08:00:59.482Z,101474.61
2019-05-07T08:02:15.181Z,101471.09
2019-05-07T08:03:22.566Z,101473.00
2019-05-07T08:04:31.876Z,101472.44
2019-05-07T08:05:38.966Z,101474.52
2019-05-07T08:06:45.996Z,101477.77
2019-05-07T08:07:53.045Z,101474.53
2019-05-07T08:09:02.101Z,101471.31
2019-05-07T08:10:09.158Z,101468.98
2019-05-07T08:11:15.991Z,101472.64
2019-05-07T08:12:22.755Z,101469.09
2019-05-07T08:13:29.649Z,101469.77
2019-05-07T08:14:36.745Z,101465.73
2019-05-07T08:15:43.524Z,101464.23
2019-05-07T08:16:52.778Z,101463.73
2019-05-07T08:17:59.290Z,101466.52
2019-05-07T08:19:18.283Z,101465.83
2019-05-07T08:20:17.150Z,101465.59
2019-05-07T08:21:24.266Z,101469.39
2019-05-07T08:22:32.952Z,101462.84
2019-05-07T08:23:42.265Z,101465.27
2019-05-07T08:24:48.490Z,101457.59
2019-05-07T08:25:55.229Z,101461.78
2019-05-07T08:27:02.590Z,101461.64
2019-05-07T08:28:11.514Z,101460.64
2019-05-07T08:29:18.385Z,101464.14
2019-05-07T08:30:26.950Z,101462.65
2019-05-07T08:31:42.538Z,101460.84
2019-05-07T08:32:57.042Z,101460.08
2019-05-07T08:34:32.492Z,101465.67
2019-05-07T08:35:42.818Z,101455.31
2019-05-07T08:36:50.015Z,101459.41
2019-05-07T08:37:57.111Z,101460.70
2019-05-07T08:39:06.415Z,101456.27
2019-05-07T08:40:13.549Z,101461.35
2019-05-07T08:41:22.477Z,101458.25
2019-05-07T08:42:31.901Z,101458.05
2019-05-07T08:43:38.768Z,101457.40
2019-05-07T08:44:52.068Z,101452.64
2019-05-07T08:46:22.304Z,101458.16
2019-05-07T08:47:39.457Z,101451.95
2019-05-07T08:48:49.033Z,101456.19
2019-05-07T08:49:56.140Z,101453.80
2019-05-07T08:51:03.001Z,101458.29
2019-05-07T08:52:11.830Z,101455.70
2019-05-07T08:53:18.876Z,101457.51
2019-05-07T08:54:25.958Z,101455.80
2019-05-07T08:55:33.068Z,101452.27
2019-05-07T08:56:42.395Z,101451.36
2019-05-07T08:57:49.258Z,101448.89
2019-05-07T08:58:56.412Z,101443.51
2019-05-07T09:00:04.655Z,101445.34
2019-05-07T09:01:11.957Z,101445.46
2019-05-07T09:02:18.961Z,101444.27
2019-05-07T09:03:44.223Z,101446.40
2019-05-07T09:04:52.233Z,101445.94
2019-05-07T09:05:59.310Z,101448.63
2019-05-07T09:07:06.072Z,101446.65
2019-05-07T09:08:12.955Z,101445.91
2019-05-07T09:09:22.182Z,101443.91
2019-05-07T09:10:28.711Z,101445.03
2019-05-07T09:11:35.465Z,101436.71
2019-05-07T09:12:42.939Z,101442.57
2019-05-07T09:13:49.844Z,101438.40
2019-05-07T09:14:56.642Z,101440.52
2019-05-07T09:16:03.887Z,101437.78
2019-05-07T09:17:12.758Z,101442.27
2019-05-07T09:18:20.196Z,101438.27
2019-05-07T09:19:27.379Z,101445.33
2019-05-07T09:20:34.125Z,101443.84
2019-05-07T09:21:42.850Z,101439.68
2019-05-07T09:22:51.844Z,101433.00
2019-05-07T09:23:58.369Z,101436.52
2019-05-07T09:25:06.299Z,101440.17
2019-05-07T09:26:15.353Z,101428.45
2019-05-07T09:27:53.994Z,101430.73
2019-05-07T09:29:13.217Z,101432.02
2019-05-07T09:30:38.020Z,101433.67
2019-05-07T09:32:03.714Z,101435.86
2019-05-07T09:33:32.944Z,101433.05
2019-05-07T09:34:44.345Z,101427.36
2019-05-07T09:35:53.368Z,101426.00
2019-05-07T09:37:02.402Z,101427.32
2019-05-07T09:38:09.302Z,101424.63
2019-05-07T09:39:16.457Z,101421.73
2019-05-07T09:40:23.309Z,101416.77
2019-05-07T09:41:32.585Z,101417.92
2019-05-07T09:42:39.528Z,101414.81
2019-05-07T09:43:46.623Z,101414.94
2019-05-07T09:44:54.099Z,101419.19
2019-05-07T09:46:02.630Z,101412.39
2019-05-07T09:47:09.699Z,101419.77
2019-05-07T09:48:16.968Z,101416.27
2019-05-07T09:49:23.742Z,101410.37
2019-05-07T09:50:32.513Z,101412.05
2019-05-07T09:51:39.842Z,101416.75
2019-05-07T09:52:47.125Z,101418.52
2019-05-07T09:53:54.202Z,101412.31
2019-05-07T09:55:06.710Z,101409.58
2019-05-07T09:56:09.811Z,101415.42
2019-05-07T09:57:30.261Z,101408.36
2019-05-07T09:58:35.692Z,101407.46
2019-05-07T09:59:33.897Z,101409.73
2019-05-07T10:00:42.500Z,101409.23
2019-05-07T10:01:49.943Z,101412.47
2019-05-07T10:02:56.854Z,101413.88
2019-05-07T10:04:03.658Z,101411.41
2019-05-07T10:05:11.057Z,101414.63
2019-05-07T10:06:17.819Z,101414.55
2019-05-07T10:07:26.060Z,101410.55
2019-05-07T10:08:33.750Z,101413.66
2019-05-07T10:09:42.681Z,101409.70
2019-05-07T10:10:51.221Z,101405.72
2019-05-07T10:12:12.210Z,101403.39
2019-05-07T10:13:35.615Z,101403.39
2019-05-07T10:14:42.401Z,101404.84
2019-05-07T10:15:49.276Z,101411.33
2019-05-07T10:17:18.095Z,101413.63
2019-05-07T10:18:24.863Z,101415.56
2019-05-07T10:19:32.505Z,101408.05
2019-05-07T10:20:41.974Z,101408.81
2019-05-07T10:21:47.880Z,101407.18
2019-05-07T10:22:54.846Z,101409.28
2019-05-07T10:24:02.471Z,101402.77
2019-05-07T10:25:12.026Z,101404.81
2019-05-07T10:26:19.476Z,101408.53
2019-05-07T10:27:26.276Z,101401.69
2019-05-07T10:28:33.563Z,101402.10
2019-05-07T10:29:42.625Z,101402.10
2019-05-07T10:30:49.609Z,101407.86
2019-05-07T10:31:56.701Z,101403.49
2019-05-07T10:33:03.609Z,101399.09
2019-05-07T10:34:12.379Z,101402.06
2019-05-07T10:35:19.162Z,101393.00
2019-05-07T10:36:25.958Z,101395.55
2019-05-07T10:37:32.748Z,101394.55
2019-05-07T10:38:40.503Z,101390.44
2019-05-07T10:39:47.571Z,101393.34
2019-05-07T10:40:54.334Z,101391.25
2019-05-07T10:42:01.888Z,101385.64
2019-05-07T10:43:08.797Z,101386.72
2019-05-07T10:44:17.390Z,101378.84
2019-05-07T10:45:52.333Z,101383.64
2019-05-07T10:47:16.928Z,101381.11
2019-05-07T10:48:46.895Z,101382.59
2019-05-07T10:50:12.517Z,101375.90
2019-05-07T10:51:21.697Z,101375.05
2019-05-07T10:52:28.122Z,101380.16
2019-05-07T10:53:34.902Z,101375.06
2019-05-07T10:54:41.677Z,101372.56
2019-05-07T10:55:48.476Z,101366.70
2019-05-07T10:56:55.252Z,101371.69
2019-05-07T10:58:02.965Z,101374.27
2019-05-07T10:59:12.053Z,101373.98
2019-05-07T11:00:22.623Z,101377.74
2019-05-07T11:01:36.334Z,101373.44
2019-05-07T11:02:43.098Z,101374.73
2019-05-07T11:03:51.757Z,101374.62
2019-05-07T11:04:58.676Z,101366.97
2019-05-07T11:06:05.789Z,101365.86
2019-05-07T11:07:12.619Z,101370.71
2019-05-07T11:08:19.408Z,101370.26
2019-05-07T11:09:26.743Z,101369.30
2019-05-07T11:10:34.191Z,101369.89
2019-05-07T11:11:42.361Z,101370.55
2019-05-07T11:12:49.291Z,101363.24
2019-05-07T11:13:57.263Z,101364.20
2019-05-07T11:15:04.373Z,101366.66
2019-05-07T11:16:13.698Z,101363.78
2019-05-07T11:17:48.852Z,101355.37
2019-05-07T11:18:55.928Z,101356.29
2019-05-07T11:20:03.103Z,101359.29
2019-05-07T11:21:11.864Z,101356.89
2019-05-07T11:22:18.991Z,101358.13
2019-05-07T11:23:26.084Z,101348.91
2019-05-07T11:24:32.937Z,101348.27
2019-05-07T11:25:39.713Z,101352.73
2019-05-07T11:26:46.541Z,101343.06
2019-05-07T11:27:53.316Z,101345.20
2019-05-07T11:29:02.365Z,101346.32
2019-05-07T11:30:11.929Z,101347.30
2019-05-07T11:31:19.345Z,101346.52
2019-05-07T11:32:26.428Z,101343.09
2019-05-07T11:33:33.573Z,101340.69
2019-05-07T11:34:42.497Z,101342.19
2019-05-07T11:35:49.677Z,101342.98
2019-05-07T11:36:56.513Z,101340.72
2019-05-07T11:38:17.410Z,101337.73
2019-05-07T11:39:12.388Z,101339.59
2019-05-07T11:40:22.908Z,101341.52
2019-05-07T11:41:51.802Z,101341.16
2019-05-07T11:43:05.323Z,101338.87
2019-05-07T11:44:17.320Z,101335.04
2019-05-07T11:45:32.131Z,101331.38
2019-05-07T11:47:07.239Z,101328.18
2019-05-07T11:48:15.425Z,101332.13
2019-05-07T11:49:29.763Z,101330.09
2019-05-07T11:51:04.257Z,101335.95
2019-05-07T11:52:15.193Z,101329.70
2019-05-07T11:53:22.124Z,101323.34
2019-05-07T11:54:28.839Z,101321.05
2019-05-07T11:55:36.290Z,101324.45
2019-05-07T11:56:43.249Z,101319.86
2019-05-07T11:57:51.852Z,101312.88
2019-05-07T11:58:59.069Z,101318.78
2019-05-07T12:00:09.342Z,101318.12
2019-05-07T12:01:18.460Z,101318.53
2019-05-07T12:02:25.316Z,101313.31
2019-05-07T12:03:32.549Z,101306.30
2019-05-07T12:04:39.669Z,101308.06
2019-05-07T12:05:46.754Z,101314.45
2019-05-07T12:06:53.835Z,101316.33
2019-05-07T12:08:02.326Z,101313.19
2019-05-07T12:09:12.105Z,101315.33
2019-05-07T12:10:19.295Z,101307.42
2019-05-07T12:11:26.090Z,101307.03
2019-05-07T12:12:32.893Z,101307.50
2019-05-07T12:13:40.054Z,101310.06
2019-05-07T12:14:46.807Z,101307.83
2019-05-07T12:15:53.940Z,101314.72
2019-05-07T12:17:02.742Z,101304.19
2019-05-07T12:18:11.772Z,101307.29
2019-05-07T12:19:18.157Z,101305.55
2019-05-07T12:20:25.167Z,101304.77
2019-05-07T12:21:32.096Z,101302.02
2019-05-07T12:22:48.005Z,101296.62
2019-05-07T12:23:55.043Z,101301.51
2019-05-07T12:25:02.630Z,101297.29
2019-05-07T12:26:09.932Z,101295.76
2019-05-07T12:27:17.319Z,101294.67
2019-05-07T12:28:24.605Z,101292.79
2019-05-07T12:29:32.350Z,101285.55
2019-05-07T12:30:57.503Z,101292.22
2019-05-07T12:32:26.614Z,101289.86
2019-05-07T12:33:53.234Z,101288.06
2019-05-07T12:35:04.499Z,101291.49
2019-05-07T12:36:12.746Z,101290.42
2019-05-07T12:37:19.517Z,101286.91
2019-05-07T12:38:26.379Z,101291.83
2019-05-07T12:39:33.537Z,101293.17
2019-05-07T12:40:41.901Z,101289.06
2019-05-07T12:41:49.344Z,101285.13
2019-05-07T12:42:56.098Z,101285.63
2019-05-07T12:44:07.000Z,101284.00
2019-05-07T12:45:14.286Z,101288.60
2019-05-07T12:46:22.356Z,101279.92
2019-05-07T12:47:29.639Z,101284.59
2019-05-07T12:48:36.403Z,101282.58
2019-05-07T12:49:43.169Z,101275.55
2019-05-07T12:50:52.132Z,101281.67
2019-05-07T12:52:23.362Z,101272.59
2019-05-07T12:53:44.014Z,101278.13
2019-05-07T12:54:57.793Z,101278.19
2019-05-07T12:56:04.943Z,101272.47
2019-05-07T12:57:12.146Z,101267.89
2019-05-07T12:58:21.805Z,101272.06
2019-05-07T12:59:29.178Z,101265.45
2019-05-07T13:01:01.437Z,101267.06
2019-05-07T13:02:40.077Z,101270.05
2019-05-07T13:04:06.942Z,101266.70
2019-05-07T13:05:14.339Z,101266.09
2019-05-07T13:06:22.057Z,101266.13
2019-05-07T13:08:03.246Z,101272.09
2019-05-07T13:09:10.238Z,101265.90
2019-05-07T13:10:17.697Z,101265.13
2019-05-07T13:11:24.436Z,101259.84
2019-05-07T13:12:32.259Z,101261.48
2019-05-07T13:13:39.482Z,101261.03
2019-05-07T13:14:46.423Z,101255.80
2019-05-07T13:15:53.164Z,101258.06
2019-05-07T13:17:00.344Z,101259.58
2019-05-07T13:18:07.319Z,101256.16
2019-05-07T13:19:14.249Z,101249.53
2019-05-07T13:20:22.624Z,101254.39
2019-05-07T13:21:31.773Z,101254.71
2019-05-07T13:22:38.375Z,101255.64
2019-05-07T13:23:45.144Z,101255.63
2019-05-07T13:24:52.959Z,101248.23
2019-05-07T13:26:02.366Z,101251.77
2019-05-07T13:27:08.954Z,101253.18
2019-05-07T13:28:15.928Z,101250.56